Time,TemperatureF,DewpointF,PressureIn,WindDirection,WindDirectionDegrees,WindSpeedMPH,WindSpeedGustMPH,Humidity,HourlyPrecipIn,Conditions,Clouds,dailyrainin,SoftwareType,DateUTC
2013-06-16 00:08:00,67.6,67.0,29.81,WNW,292,0.0,-999.0,98,-99.99,,,0.00,Acu-Link.com,2013-06-16 04:08:00,
2013-06-16 00:23:00,67.3,66.7,29.80,WNW,292,0.0,-999.0,98,-99.99,,,0.00,Acu-Link.com,2013-06-16 04:23:00,
2013-06-16 00:38:00,66.9,66.3,29.80,WNW,292,0.0,-999.0,98,-99.99,,,0.00,Acu-Link.com,2013-06-16 04:38:00,
2013-06-16 00:53:00,66.7,66.1,29.81,WNW,292,0.0,-999.0,98,-99.99,,,0.00,Acu-Link.com,2013-06-16 04:53:00,
2013-06-16 01:08:00,66.4,65.8,29.81,WNW,292,0.0,-999.0,98,-99.99,,,0.00,Acu-Link.com,2013-06-16 05:08:00,
2013-06-16 01:23:00,66.2,65.6,29.81,WNW,292,0.0,-999.0,98,-99.99,,,0.00,Acu-Link.com,2013-06-16 05:23:00,
2013-06-16 01:39:00,66.0,65.4,29.81,WNW,292,0.0,-999.0,98,-99.99,,,0.00,Acu-Link.com,2013-06-16 05:39:00,
2013-06-16 01:54:00,65.7,65.1,29.80,WNW,292,0.0,-999.0,98,-99.99,,,0.00,Acu-Link.com,2013-06-16 05:54:00,
2013-06-16 02:09:00,65.7,65.1,29.80,WNW,292,0.0,-999.0,98,-99.99,,,0.00,Acu-Link.com,2013-06-16 06:09:00,
2013-06-16 02:24:00,65.1,64.5,29.81,WNW,292,0.0,-999.0,98,-99.99,,,0.00,Acu-Link.com,2013-06-16 06:24:00,
2013-06-16 02:39:00,64.9,64.3,29.81,WNW,292,0.0,-999.0,98,-99.99,,,0.00,Acu-Link.com,2013-06-16 06:39:00,
2013-06-16 02:54:00,65.3,64.7,29.80,West,270,0.0,-999.0,98,-99.99,,,0.00,Acu-Link.com,2013-06-16 06:54:00,
2013-06-16 03:09:00,64.8,64.2,29.79,WNW,292,0.0,-999.0,98,-99.99,,,0.00,Acu-Link.com,2013-06-16 07:09:00,
2013-06-16 03:24:00,64.4,63.8,29.80,WNW,292,0.0,-999.0,98,-99.99,,,0.00,Acu-Link.com,2013-06-16 07:24:00,
2013-06-16 03:39:00,64.4,63.8,29.80,NW,315,0.0,-999.0,98,-99.99,,,0.00,Acu-Link.com,2013-06-16 07:39:00,
2013-06-16 03:55:00,64.2,63.6,29.79,NW,315,0.0,-999.0,98,-99.99,,,0.00,Acu-Link.com,2013-06-16 07:55:00,
2013-06-16 04:10:00,64.0,63.4,29.80,NW,315,0.0,-999.0,98,-99.99,,,0.00,Acu-Link.com,2013-06-16 08:10:00,
2013-06-16 04:25:00,63.7,63.1,29.80,NNW,337,0.0,-999.0,98,-99.99,,,0.00,Acu-Link.com,2013-06-16 08:25:00,
2013-06-16 04:40:00,63.7,63.1,29.80,NNW,337,0.0,-999.0,98,-99.99,,,0.00,Acu-Link.com,2013-06-16 08:40:00,
2013-06-16 04:56:00,63.3,62.7,29.81,NW,315,0.0,-999.0,98,-99.99,,,0.00,Acu-Link.com,2013-06-16 08:56:00,
2013-06-16 05:11:00,63.9,63.3,29.81,NNW,337,0.0,-999.0,98,-99.99,,,0.00,Acu-Link.com,2013-06-16 09:11:00,
2013-06-16 05:26:00,64.0,63.4,29.82,NNW,337,0.0,-999.0,98,-99.99,,,0.00,Acu-Link.com,2013-06-16 09:26:00,
2013-06-16 05:41:00,63.9,63.3,29.81,NNW,337,0.0,-999.0,98,-99.99,,,0.00,Acu-Link.com,2013-06-16 09:41:00,
2013-06-16 05:56:00,63.5,62.9,29.82,NW,315,0.0,-999.0,98,-99.99,,,0.00,Acu-Link.com,2013-06-16 09:56:00,
2013-06-16 06:11:00,63.7,63.1,29.82,NW,315,0.0,-999.0,98,-99.99,,,0.00,Acu-Link.com,2013-06-16 10:11:00,
2013-06-16 06:26:00,63.7,63.1,29.83,North,0,0.0,-999.0,98,-99.99,,,0.00,Acu-Link.com,2013-06-16 10:26:00,
2013-06-16 06:41:00,63.9,63.3,29.84,NW,315,0.0,-999.0,98,-99.99,,,0.00,Acu-Link.com,2013-06-16 10:41:00,
2013-06-16 06:56:00,64.2,63.6,29.84,North,0,0.0,-999.0,98,-99.99,,,0.00,Acu-Link.com,2013-06-16 10:56:00,
2013-06-16 07:12:00,65.1,64.5,29.84,NNW,337,0.0,-999.0,98,-99.99,,,0.00,Acu-Link.com,2013-06-16 11:12:00,
2013-06-16 07:27:00,66.9,66.3,29.84,NNW,337,0.0,-999.0,98,-99.99,,,0.00,Acu-Link.com,2013-06-16 11:27:00,
2013-06-16 07:42:00,69.3,68.7,29.85,North,0,0.0,-999.0,98,-99.99,,,0.00,Acu-Link.com,2013-06-16 11:42:00,
2013-06-16 07:57:00,70.7,69.8,29.85,South,180,0.0,-999.0,97,-99.99,,,0.00,Acu-Link.com,2013-06-16 11:57:00,
2013-06-16 08:12:00,72.7,71.2,29.85,NE,45,0.0,-999.0,95,-99.99,,,0.00,Acu-Link.com,2013-06-16 12:12:00,
2013-06-16 08:27:00,73.8,71.6,29.86,North,0,0.0,-999.0,93,-99.99,,,0.00,Acu-Link.com,2013-06-16 12:27:00,
2013-06-16 08:42:00,73.4,70.6,29.85,NE,45,0.0,-999.0,91,-99.99,,,0.00,Acu-Link.com,2013-06-16 12:42:00,
2013-06-16 08:57:00,73.9,71.4,29.85,West,270,0.0,-999.0,92,-99.99,,,0.00,Acu-Link.com,2013-06-16 12:57:00,
2013-06-16 09:12:00,75.0,70.9,29.85,South,180,2.7,-999.0,87,-99.99,,,0.00,Acu-Link.com,2013-06-16 13:12:00,
2013-06-16 09:28:00,75.9,70.4,29.85,SSW,202,4.2,-999.0,83,-99.99,,,0.00,Acu-Link.com,2013-06-16 13:28:00,
2013-06-16 09:43:00,76.6,70.7,29.86,SW,225,1.7,-999.0,82,-99.99,,,0.00,Acu-Link.com,2013-06-16 13:43:00,
2013-06-16 09:58:00,77.7,71.0,29.85,SSW,202,3.2,-999.0,80,-99.99,,,0.00,Acu-Link.com,2013-06-16 13:58:00,
2013-06-16 10:13:00,79.3,71.1,29.85,South,180,6.3,-999.0,76,-99.99,,,0.00,Acu-Link.com,2013-06-16 14:13:00,
2013-06-16 10:28:00,79.5,71.6,29.84,South,180,2.7,-999.0,77,-99.99,,,0.00,Acu-Link.com,2013-06-16 14:28:00,
2013-06-16 10:43:00,80.8,71.3,29.84,SW,225,3.7,-999.0,73,-99.99,,,0.00,Acu-Link.com,2013-06-16 14:43:00,
2013-06-16 10:58:00,82.6,72.6,29.84,SSW,202,6.8,-999.0,72,-99.99,,,0.00,Acu-Link.com,2013-06-16 14:58:00,
2013-06-16 11:13:00,82.8,72.4,29.83,South,180,5.8,-999.0,71,-99.99,,,0.00,Acu-Link.com,2013-06-16 15:13:00,
2013-06-16 11:28:00,83.3,72.0,29.82,South,180,4.7,-999.0,69,-99.99,,,0.00,Acu-Link.com,2013-06-16 15:28:00,
2013-06-16 11:44:00,84.2,73.3,29.82,South,180,4.2,-999.0,70,-99.99,,,0.00,Acu-Link.com,2013-06-16 15:44:00,
2013-06-16 11:59:00,85.3,73.5,29.81,NNW,337,1.7,-999.0,68,-99.99,,,0.00,Acu-Link.com,2013-06-16 15:59:00,
2013-06-16 12:14:00,85.3,73.1,29.80,South,180,2.7,-999.0,67,-99.99,,,0.00,Acu-Link.com,2013-06-16 16:14:00,
2013-06-16 12:29:00,85.1,72.9,29.80,SW,225,7.3,-999.0,67,-99.99,,,0.00,Acu-Link.com,2013-06-16 16:29:00,
2013-06-16 12:44:00,86.7,75.3,29.79,SSW,202,2.2,-999.0,69,-99.99,,,0.00,Acu-Link.com,2013-06-16 16:44:00,
2013-06-16 12:59:00,86.2,73.5,29.80,South,180,4.7,-999.0,66,-99.99,,,0.00,Acu-Link.com,2013-06-16 16:59:00,
2013-06-16 13:14:00,88.0,74.7,29.80,South,180,5.8,-999.0,65,-99.99,,,0.00,Acu-Link.com,2013-06-16 17:14:00,
2013-06-16 13:29:00,88.3,74.5,29.79,South,180,3.2,-999.0,64,-99.99,,,0.00,Acu-Link.com,2013-06-16 17:29:00,
2013-06-16 13:44:00,87.8,74.5,29.79,SSW,202,4.7,-999.0,65,-99.99,,,0.00,Acu-Link.com,2013-06-16 17:44:00,
2013-06-16 14:00:00,86.9,73.7,29.77,SSW,202,3.7,-999.0,65,-99.99,,,0.00,Acu-Link.com,2013-06-16 18:00:00,
2013-06-16 14:15:00,87.8,74.5,29.76,SW,225,7.3,-999.0,65,-99.99,,,0.00,Acu-Link.com,2013-06-16 18:15:00,
2013-06-16 14:30:00,88.0,73.3,29.76,SSW,202,6.8,-999.0,62,-99.99,,,0.00,Acu-Link.com,2013-06-16 18:30:00,
2013-06-16 14:45:00,88.3,74.1,29.76,WSW,247,7.3,-999.0,63,-99.99,,,0.00,Acu-Link.com,2013-06-16 18:45:00,
2013-06-16 15:01:00,88.3,74.5,29.75,SW,225,6.3,-999.0,64,-99.99,,,0.00,Acu-Link.com,2013-06-16 19:01:00,
2013-06-16 15:16:00,88.0,74.7,29.76,SSW,202,3.2,-999.0,65,-99.99,,,0.00,Acu-Link.com,2013-06-16 19:16:00,
2013-06-16 15:31:00,88.7,75.4,29.75,West,270,2.7,-999.0,65,-99.99,,,0.00,Acu-Link.com,2013-06-16 19:31:00,
2013-06-16 15:46:00,89.8,76.4,29.74,South,180,3.7,-999.0,65,-99.99,,,0.00,Acu-Link.com,2013-06-16 19:46:00,
2013-06-16 16:01:00,88.9,74.6,29.73,East,90,3.7,-999.0,63,-99.99,,,0.00,Acu-Link.com,2013-06-16 20:01:00,
2013-06-16 16:16:00,88.9,74.2,29.74,South,180,5.8,-999.0,62,-99.99,,,0.00,Acu-Link.com,2013-06-16 20:16:00,
2013-06-16 16:31:00,88.3,74.1,29.73,South,180,3.7,-999.0,63,-99.99,,,0.00,Acu-Link.com,2013-06-16 20:31:00,
2013-06-16 16:46:00,89.6,74.8,29.73,South,180,3.7,-999.0,62,-99.99,,,0.00,Acu-Link.com,2013-06-16 20:46:00,
2013-06-16 17:01:00,87.3,74.5,29.72,SSW,202,2.7,-999.0,66,-99.99,,,0.00,Acu-Link.com,2013-06-16 21:01:00,
2013-06-16 17:17:00,87.8,75.4,29.72,NNW,337,1.1,-999.0,67,-99.99,,,0.00,Acu-Link.com,2013-06-16 21:17:00,
2013-06-16 17:32:00,86.9,75.9,29.71,SSW,202,3.7,-999.0,70,-99.99,,,0.00,Acu-Link.com,2013-06-16 21:32:00,
2013-06-16 17:47:00,87.6,76.1,29.71,SE,135,2.7,-999.0,69,-99.99,,,0.00,Acu-Link.com,2013-06-16 21:47:00,
2013-06-16 18:02:00,87.6,77.0,29.71,SSW,202,0.0,-999.0,71,-99.99,,,0.00,Acu-Link.com,2013-06-16 22:02:00,
2013-06-16 18:17:00,86.0,76.3,29.70,ESE,112,4.7,-999.0,73,-99.99,,,0.00,Acu-Link.com,2013-06-16 22:17:00,
2013-06-16 18:33:00,85.1,75.9,29.69,WSW,247,3.2,-999.0,74,-99.99,,,0.00,Acu-Link.com,2013-06-16 22:33:00,
2013-06-16 18:48:00,85.6,75.9,29.70,East,90,2.2,-999.0,73,-99.99,,,0.00,Acu-Link.com,2013-06-16 22:48:00,
2013-06-16 19:13:00,83.5,76.3,29.70,East,90,3.2,-999.0,79,-99.99,,,0.00,Acu-Link.com,2013-06-16 23:13:00,
2013-06-16 19:28:00,80.6,73.1,29.72,NE,45,2.7,-999.0,78,-99.99,,,0.00,Acu-Link.com,2013-06-16 23:28:00,
2013-06-16 19:43:00,79.3,71.1,29.73,NNW,337,0.0,-999.0,76,-99.99,,,0.00,Acu-Link.com,2013-06-16 23:43:00,
2013-06-16 20:14:00,74.3,73.7,29.73,South,180,1.7,-999.0,98,-99.99,,,0.01,Acu-Link.com,2013-06-17 00:14:00,
2013-06-16 20:32:00,73.4,72.8,29.76,South,180,2.2,-999.0,98,-99.99,,,0.05,Acu-Link.com,2013-06-17 00:32:00,
2013-06-16 20:47:00,72.1,71.5,29.76,SE,135,2.2,-999.0,98,-99.99,,,0.08,Acu-Link.com,2013-06-17 00:47:00,
2013-06-16 21:02:00,71.8,71.2,29.75,SSE,157,0.0,-999.0,98,-99.99,,,0.08,Acu-Link.com,2013-06-17 01:02:00,
2013-06-16 21:17:00,71.4,70.8,29.77,NW,315,0.0,-999.0,98,-99.99,,,0.08,Acu-Link.com,2013-06-17 01:17:00,
2013-06-16 21:32:00,71.4,70.8,29.77,SW,225,0.0,-999.0,98,-99.99,,,0.08,Acu-Link.com,2013-06-17 01:32:00,
2013-06-16 21:47:00,71.4,70.8,29.77,SW,225,2.7,-999.0,98,-99.99,,,0.08,Acu-Link.com,2013-06-17 01:47:00,
2013-06-16 22:02:00,71.6,71.0,29.78,SSW,202,4.2,-999.0,98,-99.99,,,0.08,Acu-Link.com,2013-06-17 02:02:00,
2013-06-16 22:18:00,71.8,71.2,29.78,SSW,202,1.7,-999.0,98,-99.99,,,0.08,Acu-Link.com,2013-06-17 02:18:00,
2013-06-16 22:33:00,72.0,71.4,29.77,SSW,202,2.2,-999.0,98,-99.99,,,0.09,Acu-Link.com,2013-06-17 02:33:00,
2013-06-16 22:48:00,72.0,71.4,29.78,SW,225,0.0,-999.0,98,-99.99,,,0.09,Acu-Link.com,2013-06-17 02:48:00,
2013-06-16 23:04:00,72.0,71.4,29.77,West,270,0.0,-999.0,98,-99.99,,,0.09,Acu-Link.com,2013-06-17 03:04:00,
2013-06-16 23:19:00,71.8,71.2,29.77,South,180,3.2,-999.0,98,-99.99,,,0.09,Acu-Link.com,2013-06-17 03:19:00,
2013-06-16 23:34:00,71.4,70.8,29.78,WNW,292,0.0,-999.0,98,-99.99,,,0.09,Acu-Link.com,2013-06-17 03:34:00,
2013-06-16 23:49:00,71.2,70.6,29.77,SW,225,2.7,-999.0,98,-99.99,,,0.09,Acu-Link.com,2013-06-17 03:49:00,